createdAt,value
2019-02-07T00:02:27.059Z,95.00
2019-02-07T00:04:53.973Z,94.40
2019-02-07T00:07:20.888Z,94.60
2019-02-07T00:09:47.828Z,95.20
2019-02-07T00:12:14.775Z,94.10
2019-02-07T00:14:42.290Z,94.70
2019-02-07T00:17:08.971Z,93.60
2019-02-07T00:19:35.889Z,94.30
2019-02-07T00:22:02.825Z,94.90
2019-02-07T00:24:30.089Z,94.00
2019-02-07T00:26:56.999Z,94.80
2019-02-07T00:29:23.955Z,95.10
2019-02-07T00:31:50.624Z,93.90
2019-02-07T00:34:17.263Z,93.00
2019-02-07T00:36:44.649Z,92.40
2019-02-07T00:39:11.342Z,91.80
2019-02-07T00:41:38.244Z,92.70
2019-02-07T00:44:05.324Z,92.20
2019-02-07T00:46:32.247Z,95.50
2019-02-07T00:48:59.158Z,95.20
2019-02-07T00:51:25.908Z,94.80
2019-02-07T00:53:52.583Z,94.50
2019-02-07T00:56:19.341Z,93.00
2019-02-07T00:58:46.524Z,93.10
2019-02-07T01:01:13.389Z,92.30
2019-02-07T01:03:40.941Z,92.10
2019-02-07T01:06:07.710Z,92.00
2019-02-07T01:08:34.421Z,92.30
2019-02-07T01:11:01.064Z,95.60
2019-02-07T01:13:28.057Z,96.40
2019-02-07T01:15:57.660Z,94.90
2019-02-07T01:18:25.179Z,95.60
2019-02-07T01:20:52.135Z,96.40
2019-02-07T01:23:18.787Z,96.90
2019-02-07T01:25:45.555Z,95.80
2019-02-07T01:28:12.183Z,93.90
2019-02-07T01:30:38.838Z,97.30
2019-02-07T01:33:05.437Z,97.40
2019-02-07T01:35:32.454Z,95.60
2019-02-07T01:37:59.373Z,95.80
2019-02-07T01:40:26.278Z,95.40
2019-02-07T01:42:55.699Z,94.90
2019-02-07T01:45:21.708Z,95.40
2019-02-07T01:47:48.636Z,95.40
2019-02-07T01:50:15.279Z,94.00
2019-02-07T01:52:43.123Z,95.20
2019-02-07T01:55:09.984Z,94.00
2019-02-07T01:57:36.906Z,93.50
2019-02-07T02:00:03.641Z,94.10
2019-02-07T02:02:30.266Z,97.50
2019-02-07T02:04:57.171Z,99.40
2019-02-07T02:07:23.800Z,99.90
2019-02-07T02:09:50.547Z,99.00
2019-02-07T02:12:17.832Z,98.00
2019-02-07T02:14:44.698Z,96.60
2019-02-07T02:17:11.512Z,94.90
2019-02-07T02:19:38.251Z,95.30
2019-02-07T02:22:05.078Z,94.00
2019-02-07T02:24:31.756Z,93.40
2019-02-07T02:26:58.414Z,93.50
2019-02-07T02:29:25.546Z,94.00
2019-02-07T02:31:52.596Z,93.80
2019-02-07T02:34:19.680Z,93.10
2019-02-07T02:36:46.952Z,94.00
2019-02-07T02:39:15.278Z,93.70
2019-02-07T02:44:15.384Z,95.80
2019-02-07T02:46:42.156Z,98.20
2019-02-07T02:49:09.233Z,96.20
2019-02-07T02:51:36.073Z,97.30
2019-02-07T02:54:02.982Z,99.30
2019-02-07T02:56:30.504Z,99.90
2019-02-07T02:58:57.166Z,98.00
2019-02-07T03:01:24.000Z,96.90
2019-02-07T03:03:51.099Z,95.70
2019-02-07T03:06:18.558Z,98.70
2019-02-07T03:08:45.591Z,98.80
2019-02-07T03:11:12.315Z,98.30
2019-02-07T03:13:39.370Z,97.20
2019-02-07T03:16:06.364Z,96.20
2019-02-07T03:18:33.554Z,95.40
2019-02-07T03:21:00.521Z,95.10
2019-02-07T03:23:27.499Z,95.20
2019-02-07T03:25:54.573Z,97.10
2019-02-07T03:28:22.897Z,94.80
2019-02-07T03:30:49.689Z,94.00
2019-02-07T03:33:16.562Z,94.20
2019-02-07T03:35:43.644Z,97.70
2019-02-07T03:38:10.584Z,99.10
2019-02-07T03:40:37.317Z,99.50
2019-02-07T03:43:04.705Z,96.50
2019-02-07T03:45:32.048Z,95.00
2019-02-07T03:47:58.735Z,95.50
2019-02-07T03:50:25.749Z,94.30
2019-02-07T03:52:52.793Z,96.10
2019-02-07T03:55:19.765Z,98.70
2019-02-07T03:57:46.487Z,98.80
2019-02-07T04:00:13.112Z,96.00
2019-02-07T04:02:40.680Z,97.00
2019-02-07T04:05:07.952Z,97.90
2019-02-07T04:07:34.952Z,97.10
2019-02-07T04:10:01.899Z,98.10
2019-02-07T04:12:28.555Z,97.70
2019-02-07T04:14:55.661Z,95.80
2019-02-07T04:17:22.301Z,96.20
2019-02-07T04:19:49.163Z,96.70
2019-02-07T04:22:16.510Z,97.80
2019-02-07T04:24:43.237Z,97.20
2019-02-07T04:27:10.157Z,98.10
2019-02-07T04:29:37.094Z,98.20
2019-02-07T04:32:03.710Z,95.40
2019-02-07T04:34:30.365Z,94.90
2019-02-07T04:36:57.163Z,93.80
2019-02-07T04:39:23.788Z,93.70
2019-02-07T04:41:50.530Z,93.40
2019-02-07T04:44:17.285Z,93.60
2019-02-07T04:46:44.198Z,93.40
2019-02-07T04:49:10.900Z,94.30
2019-02-07T04:51:37.575Z,93.50
2019-02-07T04:54:04.492Z,93.70
2019-02-07T04:56:31.558Z,94.00
2019-02-07T04:58:58.501Z,93.20
2019-02-07T05:01:25.487Z,91.90
2019-02-07T05:03:52.369Z,92.90
2019-02-07T05:06:19.000Z,93.10
2019-02-07T05:08:47.002Z,92.70
2019-02-07T05:11:13.650Z,92.60
2019-02-07T05:13:40.667Z,93.60
2019-02-07T05:16:07.929Z,94.10
2019-02-07T05:18:34.895Z,93.30
2019-02-07T05:21:01.779Z,93.20
2019-02-07T05:23:28.625Z,92.30
2019-02-07T05:25:55.351Z,91.90
2019-02-07T05:28:21.999Z,91.80
2019-02-07T05:30:48.891Z,91.40
2019-02-07T05:33:17.295Z,91.70
2019-02-07T05:35:43.936Z,91.10
2019-02-07T05:38:10.828Z,91.30
2019-02-07T05:40:37.503Z,91.50
2019-02-07T05:43:04.127Z,92.60
2019-02-07T05:45:31.048Z,92.80
2019-02-07T05:47:57.672Z,91.60
2019-02-07T05:50:24.433Z,91.30
2019-02-07T05:52:52.657Z,91.80
2019-02-07T05:55:20.256Z,91.10
2019-02-07T05:57:46.914Z,90.40
2019-02-07T06:00:13.895Z,91.40
2019-02-07T06:02:40.538Z,91.40
2019-02-07T06:05:07.141Z,90.90
2019-02-07T06:07:34.062Z,90.50
2019-02-07T06:10:01.227Z,90.90
2019-02-07T06:12:28.247Z,91.10
2019-02-07T06:14:54.955Z,90.80
2019-02-07T06:17:21.777Z,90.90
2019-02-07T06:19:48.520Z,93.70
2019-02-07T06:22:15.430Z,93.60
2019-02-07T06:24:42.147Z,93.20
2019-02-07T06:27:08.751Z,92.50
2019-02-07T06:29:35.646Z,92.20
2019-02-07T06:32:02.925Z,91.80
2019-02-07T06:34:29.595Z,91.90
2019-02-07T06:36:56.473Z,92.70
2019-02-07T06:39:23.111Z,92.00
2019-02-07T06:41:50.987Z,91.30
2019-02-07T06:44:17.752Z,92.00
2019-02-07T06:46:44.854Z,92.40
2019-02-07T06:49:11.785Z,92.40
2019-02-07T06:51:38.770Z,94.20
2019-02-07T06:54:05.756Z,93.60
2019-02-07T06:56:32.720Z,94.00
2019-02-07T06:58:59.344Z,94.20
2019-02-07T07:01:26.306Z,92.80
2019-02-07T07:03:52.930Z,92.50
2019-02-07T07:06:28.084Z,92.30
2019-02-07T07:08:57.835Z,92.40
2019-02-07T07:11:24.976Z,92.00
2019-02-07T07:13:51.894Z,92.60
2019-02-07T07:16:18.602Z,95.70
2019-02-07T07:18:45.412Z,95.40
2019-02-07T07:21:11.993Z,96.20
2019-02-07T07:23:38.682Z,95.90
2019-02-07T07:26:05.289Z,95.60
2019-02-07T07:28:32.079Z,94.70
2019-02-07T07:30:59.043Z,96.30
2019-02-07T07:33:26.095Z,96.50
2019-02-07T07:35:53.105Z,97.00
2019-02-07T07:38:21.692Z,96.30
2019-02-07T07:40:48.356Z,97.40
2019-02-07T07:43:15.228Z,99.20
2019-02-07T07:45:42.154Z,99.90
2019-02-07T07:48:09.413Z,99.90
2019-02-07T07:50:36.459Z,99.20
2019-02-07T07:53:03.429Z,99.90
2019-02-07T07:55:30.483Z,99.00
2019-02-07T07:57:57.430Z,98.30
2019-02-07T08:00:24.107Z,98.20
2019-02-07T08:02:51.918Z,98.20
2019-02-07T08:05:18.535Z,96.80
2019-02-07T08:07:45.260Z,95.60
2019-02-07T08:10:12.069Z,94.60
2019-02-07T08:12:38.837Z,95.90
2019-02-07T08:15:15.288Z,96.80
2019-02-07T08:17:47.409Z,97.50
2019-02-07T08:20:10.533Z,97.40
2019-02-07T08:22:37.178Z,96.40
2019-02-07T08:25:03.912Z,95.50
2019-02-07T08:27:33.859Z,95.60
2019-02-07T08:30:00.861Z,94.30
2019-02-07T08:32:29.106Z,93.50
2019-02-07T08:34:56.958Z,93.80
2019-02-07T08:37:25.037Z,93.10
2019-02-07T08:39:52.538Z,91.90
2019-02-07T08:42:22.350Z,91.70
2019-02-07T08:45:08.595Z,92.70
2019-02-07T08:47:35.858Z,91.90
2019-02-07T08:50:06.590Z,91.30
2019-02-07T08:52:34.118Z,91.50
2019-02-07T08:55:04.160Z,90.50
2019-02-07T08:57:33.618Z,89.80
2019-02-07T09:00:03.114Z,88.50
2019-02-07T09:02:29.765Z,88.40
2019-02-07T09:04:56.922Z,87.30
2019-02-07T09:07:23.580Z,86.60
2019-02-07T09:09:50.554Z,89.90
2019-02-07T09:12:17.569Z,90.60
2019-02-07T09:14:44.616Z,89.10
2019-02-07T09:17:14.361Z,87.70
2019-02-07T09:19:40.383Z,85.70
2019-02-07T09:22:07.178Z,86.10
2019-02-07T09:24:33.822Z,85.80
2019-02-07T09:27:00.667Z,85.90
2019-02-07T09:29:27.361Z,85.40
2019-02-07T09:31:54.279Z,84.20
2019-02-07T09:34:20.919Z,84.90
2019-02-07T09:36:47.765Z,83.50
2019-02-07T09:39:14.643Z,83.40
2019-02-07T09:41:41.346Z,81.80
2019-02-07T09:44:08.127Z,82.30
2019-02-07T09:46:36.223Z,81.10
2019-02-07T09:49:13.588Z,82.40
2019-02-07T09:51:36.853Z,82.90
2019-02-07T09:54:05.024Z,84.20
2019-02-07T09:56:33.035Z,83.60
2019-02-07T09:59:03.228Z,83.80
2019-02-07T10:01:32.385Z,81.80
2019-02-07T10:04:01.961Z,79.20
2019-02-07T10:06:31.757Z,81.20
2019-02-07T10:08:59.723Z,81.90
2019-02-07T10:11:30.960Z,77.80
2019-02-07T10:14:01.605Z,76.80
2019-02-07T10:16:28.478Z,79.30
2019-02-07T10:18:59.732Z,79.00
2019-02-07T10:21:26.613Z,78.70
2019-02-07T10:23:55.736Z,77.80
2019-02-07T10:26:25.457Z,75.90
2019-02-07T10:28:56.579Z,75.70
2019-02-07T10:31:26.246Z,77.10
2019-02-07T10:33:54.857Z,75.70
2019-02-07T10:36:35.628Z,73.20
2019-02-07T10:38:51.086Z,72.70
2019-02-07T10:41:17.712Z,71.50
2019-02-07T10:43:44.352Z,71.30
2019-02-07T10:46:11.028Z,72.10
2019-02-07T10:48:44.520Z,71.00
2019-02-07T10:51:12.079Z,68.80
2019-02-07T10:53:40.923Z,72.10
2019-02-07T10:56:10.750Z,70.80
2019-02-07T10:58:41.080Z,68.10
2019-02-07T11:01:08.090Z,69.90
2019-02-07T11:03:37.766Z,70.80
2019-02-07T11:06:06.831Z,71.20
2019-02-07T11:08:38.328Z,68.40
2019-02-07T11:11:07.322Z,71.20
2019-02-07T11:13:37.553Z,70.80
2019-02-07T11:16:08.449Z,70.60
2019-02-07T11:18:38.074Z,70.40
2019-02-07T11:21:09.466Z,70.00
2019-02-07T11:23:38.934Z,68.90
2019-02-07T11:26:06.841Z,70.00
2019-02-07T11:28:38.296Z,68.80
2019-02-07T11:31:09.703Z,68.90
2019-02-07T11:33:37.359Z,64.50
2019-02-07T11:36:07.786Z,65.20
2019-02-07T11:38:38.983Z,64.60
2019-02-07T11:41:06.777Z,64.30
2019-02-07T11:43:34.617Z,65.10
2019-02-07T11:46:06.613Z,66.70
2019-02-07T11:48:35.780Z,66.40
2019-02-07T11:53:52.784Z,62.20
2019-02-07T11:56:23.987Z,64.50
2019-02-07T11:58:57.492Z,64.10
2019-02-07T12:01:20.898Z,62.60
2019-02-07T12:03:47.784Z,63.80
2019-02-07T12:06:15.040Z,62.40
2019-02-07T12:08:41.725Z,62.40
2019-02-07T12:11:08.640Z,61.10
2019-02-07T12:13:36.006Z,64.20
2019-02-07T12:16:04.835Z,62.80
2019-02-07T12:18:31.194Z,62.50
2019-02-07T12:20:57.906Z,62.90
2019-02-07T12:23:26.250Z,61.60
2019-02-07T12:25:54.887Z,60.70
2019-02-07T12:28:21.924Z,61.50
2019-02-07T12:30:49.092Z,64.50
2019-02-07T12:33:16.173Z,61.90
2019-02-07T12:35:43.100Z,63.20
2019-02-07T12:38:10.132Z,62.20
2019-02-07T12:40:37.118Z,61.50
2019-02-07T12:43:03.777Z,60.60
2019-02-07T12:45:30.964Z,59.80
2019-02-07T12:47:57.702Z,60.20
2019-02-07T12:50:25.839Z,59.80
2019-02-07T12:52:52.587Z,60.00
2019-02-07T12:55:19.459Z,60.90
2019-02-07T12:57:46.245Z,60.20
2019-02-07T13:00:12.905Z,60.10
2019-02-07T13:02:39.553Z,58.70
2019-02-07T13:05:06.583Z,59.50
2019-02-07T13:07:33.584Z,60.20
2019-02-07T13:10:00.503Z,60.40
2019-02-07T13:12:28.113Z,58.90
2019-02-07T13:14:56.388Z,58.60
2019-02-07T13:17:23.147Z,60.80
2019-02-07T13:19:50.491Z,58.90
2019-02-07T13:22:17.216Z,58.50
2019-02-07T13:24:44.209Z,58.90
2019-02-07T13:27:11.111Z,59.70
2019-02-07T13:29:38.266Z,60.00
2019-02-07T13:32:05.270Z,59.30
2019-02-07T13:34:32.266Z,59.20
2019-02-07T13:36:59.317Z,58.80
2019-02-07T13:39:26.659Z,59.70
2019-02-07T13:41:53.624Z,59.30
2019-02-07T13:44:20.918Z,59.10
2019-02-07T13:46:48.238Z,57.90
2019-02-07T13:49:15.442Z,58.60
2019-02-07T13:51:42.740Z,58.60
2019-02-07T13:54:09.436Z,57.10
2019-02-07T13:56:36.242Z,59.90
2019-02-07T13:59:02.948Z,59.00
2019-02-07T14:01:29.675Z,58.00
2019-02-07T14:03:56.842Z,57.50
2019-02-07T14:06:23.508Z,57.30
2019-02-07T14:08:50.401Z,57.80
2019-02-07T14:11:17.483Z,57.60
2019-02-07T14:13:46.151Z,59.20
2019-02-07T14:16:12.843Z,59.20
2019-02-07T14:18:39.645Z,59.80
2019-02-07T14:21:06.919Z,59.40
2019-02-07T14:23:33.689Z,59.80
2019-02-07T14:26:00.850Z,60.20
2019-02-07T14:28:27.914Z,60.80
2019-02-07T14:30:54.900Z,59.80
2019-02-07T14:33:21.817Z,59.40
2019-02-07T14:35:48.939Z,59.70
2019-02-07T14:38:15.961Z,60.10
2019-02-07T14:40:47.538Z,61.30
2019-02-07T14:43:14.162Z,60.60
2019-02-07T14:45:41.049Z,61.20
2019-02-07T14:48:08.400Z,60.40
2019-02-07T14:50:35.571Z,60.90
2019-02-07T14:53:03.224Z,61.80
2019-02-07T14:55:30.222Z,61.80
2019-02-07T14:57:57.659Z,62.50
2019-02-07T15:00:24.358Z,61.40
2019-02-07T15:02:51.144Z,61.20
2019-02-07T15:05:17.814Z,61.60
2019-02-07T15:07:44.827Z,61.40
2019-02-07T15:10:11.771Z,60.60
2019-02-07T15:12:38.889Z,59.90
2019-02-07T15:15:06.114Z,60.40
2019-02-07T15:17:33.024Z,59.60
2019-02-07T15:19:59.867Z,59.50
2019-02-07T15:22:27.720Z,59.20
2019-02-07T15:24:54.379Z,58.70
2019-02-07T15:27:21.290Z,58.60
2019-02-07T15:29:48.244Z,58.10
2019-02-07T15:32:14.993Z,57.90
2019-02-07T15:34:42.093Z,58.10
2019-02-07T15:37:08.990Z,57.80
2019-02-07T15:39:35.643Z,57.50
2019-02-07T15:42:02.900Z,58.10
2019-02-07T15:44:29.777Z,58.20
2019-02-07T15:46:56.883Z,58.00
2019-02-07T15:49:23.998Z,58.20
2019-02-07T15:51:50.710Z,58.20
2019-02-07T15:54:17.586Z,58.00
2019-02-07T15:56:44.521Z,58.50
2019-02-07T15:59:14.235Z,58.40
2019-02-07T16:01:40.726Z,58.40
2019-02-07T16:04:08.548Z,58.60
2019-02-07T16:06:36.296Z,58.80
2019-02-07T16:09:03.860Z,59.40
2019-02-07T16:11:30.536Z,59.90
2019-02-07T16:13:57.157Z,60.00
2019-02-07T16:16:24.125Z,60.60
2019-02-07T16:18:51.089Z,61.10
2019-02-07T16:21:17.700Z,61.60
2019-02-07T16:23:44.358Z,62.10
2019-02-07T16:26:11.369Z,61.80
2019-02-07T16:28:38.332Z,62.70
2019-02-07T16:31:05.290Z,62.60
2019-02-07T16:33:31.928Z,62.60
2019-02-07T16:36:00.535Z,62.30
2019-02-07T16:38:27.271Z,63.00
2019-02-07T16:40:57.638Z,62.90
2019-02-07T16:43:24.643Z,63.00
2019-02-07T16:45:51.697Z,64.20
2019-02-07T16:48:18.424Z,64.80
2019-02-07T16:50:46.374Z,65.00
2019-02-07T16:53:13.999Z,65.30
2019-02-07T16:55:40.951Z,65.40
2019-02-07T16:58:08.141Z,65.50
2019-02-07T17:00:39.089Z,66.00
2019-02-07T17:03:08.580Z,65.80
2019-02-07T17:05:37.802Z,66.10
2019-02-07T17:08:08.472Z,67.50
2019-02-07T17:10:36.115Z,66.90
2019-02-07T17:13:05.161Z,66.70
2019-02-07T17:15:36.442Z,66.50
2019-02-07T17:18:03.201Z,67.20
2019-02-07T17:20:30.273Z,67.30
2019-02-07T17:22:59.123Z,68.10
2019-02-07T17:25:29.046Z,69.10
2019-02-07T17:27:55.801Z,70.30
2019-02-07T17:30:25.352Z,71.40
2019-02-07T17:32:55.155Z,70.70
2019-02-07T17:35:23.040Z,70.10
2019-02-07T17:37:53.812Z,69.40
2019-02-07T17:40:23.670Z,69.20
2019-02-07T17:42:51.395Z,69.00
2019-02-07T17:45:20.755Z,70.50
2019-02-07T17:47:50.574Z,71.90
2019-02-07T17:50:20.533Z,71.40
2019-02-07T17:52:50.218Z,74.60
2019-02-07T17:55:17.216Z,80.10
2019-02-07T17:57:48.778Z,78.80
2019-02-07T18:00:16.378Z,77.40
2019-02-07T18:02:46.779Z,77.00
2019-02-07T18:05:16.732Z,77.30
2019-02-07T18:07:43.935Z,75.80
2019-02-07T18:10:13.572Z,75.20
2019-02-07T18:12:41.182Z,75.10
2019-02-07T18:15:12.021Z,74.90
2019-02-07T18:20:28.008Z,74.60
2019-02-07T18:22:56.781Z,73.40
2019-02-07T18:25:25.011Z,76.30
2019-02-07T18:27:54.138Z,77.00
2019-02-07T18:30:23.065Z,76.70
2019-02-07T18:32:52.968Z,76.20
2019-02-07T18:35:20.337Z,76.30
2019-02-07T18:37:47.956Z,76.30
2019-02-07T18:40:16.449Z,75.60
2019-02-07T18:42:43.523Z,74.80
2019-02-07T18:45:10.198Z,74.60
2019-02-07T18:47:38.083Z,75.70
2019-02-07T18:50:05.437Z,79.50
2019-02-07T18:52:32.870Z,81.90
2019-02-07T18:54:59.585Z,80.10
2019-02-07T18:57:26.714Z,80.30
2019-02-07T18:59:58.089Z,82.90
2019-02-07T19:02:39.448Z,83.00
2019-02-07T19:05:07.132Z,85.20
2019-02-07T19:07:40.119Z,86.70
2019-02-07T19:12:54.118Z,90.00
2019-02-07T19:15:36.177Z,90.50
2019-02-07T19:18:07.990Z,89.70
2019-02-07T19:20:45.409Z,89.50
2019-02-07T19:28:55.388Z,90.30
2019-02-07T19:33:55.217Z,89.20
2019-02-07T19:36:22.287Z,88.10
2019-02-07T19:38:49.135Z,87.80
2019-02-07T19:41:16.867Z,87.30
2019-02-07T19:43:45.597Z,88.70
2019-02-07T19:46:14.974Z,89.50
2019-02-07T19:48:42.147Z,90.20
2019-02-07T19:51:11.381Z,89.00
2019-02-07T20:13:18.020Z,92.00
2019-02-07T20:15:49.613Z,91.50
2019-02-07T20:18:18.160Z,91.40
2019-02-07T20:23:33.080Z,91.00
2019-02-07T20:26:02.221Z,91.60
2019-02-07T20:28:29.770Z,92.90
2019-02-07T20:30:57.263Z,91.70
2019-02-07T20:33:23.874Z,90.70
2019-02-07T20:35:50.613Z,91.30
2019-02-07T20:38:17.634Z,92.60
2019-02-07T20:40:45.695Z,91.70
2019-02-07T20:43:16.393Z,92.20
2019-02-07T20:45:55.393Z,94.90
2019-02-07T20:48:24.497Z,94.20
2019-02-07T20:50:55.321Z,92.90
2019-02-07T20:53:22.938Z,92.40
2019-02-07T20:55:50.900Z,93.60
2019-02-07T20:58:22.062Z,94.30
2019-02-07T21:00:51.619Z,93.60
2019-02-07T21:03:18.739Z,93.60
2019-02-07T21:05:45.670Z,92.80
2019-02-07T21:08:12.572Z,92.10
2019-02-07T21:10:40.058Z,92.30
2019-02-07T21:13:06.977Z,92.10
2019-02-07T21:15:33.854Z,92.30
2019-02-07T21:18:00.770Z,92.20
2019-02-07T21:20:27.390Z,93.80
2019-02-07T21:22:54.062Z,92.80
2019-02-07T21:25:20.920Z,92.70
2019-02-07T21:27:47.912Z,92.70
2019-02-07T21:30:14.606Z,94.00
2019-02-07T21:32:41.638Z,94.20
2019-02-07T21:35:08.241Z,93.60
2019-02-07T21:37:35.229Z,93.00
2019-02-07T21:40:02.443Z,92.40
2019-02-07T21:42:29.236Z,91.80
2019-02-07T21:44:56.325Z,92.50
2019-02-07T21:47:22.945Z,95.40
2019-02-07T21:49:49.577Z,95.40
2019-02-07T21:52:16.804Z,94.60
2019-02-07T21:54:52.827Z,94.40
2019-02-07T21:57:16.275Z,95.40
2019-02-07T21:59:42.891Z,95.90
2019-02-07T22:02:09.666Z,94.00
2019-02-07T22:04:48.139Z,94.60
2019-02-07T22:07:15.816Z,96.50
2019-02-07T22:09:43.699Z,96.50
2019-02-07T22:12:13.209Z,96.10
2019-02-07T22:14:40.289Z,95.10
2019-02-07T22:17:07.148Z,96.00
2019-02-07T22:19:35.008Z,95.40
2019-02-07T22:22:03.190Z,96.40
2019-02-07T22:24:33.374Z,97.20
2019-02-07T22:27:00.763Z,96.20
2019-02-07T22:29:30.040Z,96.70
2019-02-07T22:31:57.757Z,97.80
2019-02-07T22:34:25.443Z,97.60
2019-02-07T22:36:55.277Z,95.40
2019-02-07T22:39:24.363Z,95.10
2019-02-07T22:41:52.010Z,95.90
2019-02-07T22:44:19.445Z,97.00
2019-02-07T22:46:50.653Z,96.40
2019-02-07T22:49:20.627Z,99.90
2019-02-07T22:51:54.739Z,99.90
2019-02-07T22:54:19.671Z,99.90
2019-02-07T22:56:47.880Z,99.90
2019-02-07T22:59:18.710Z,98.80
2019-02-07T23:01:46.461Z,97.30
2019-02-07T23:04:13.128Z,96.50
2019-02-07T23:06:39.858Z,97.30
2019-02-07T23:09:06.753Z,97.90
2019-02-07T23:11:33.339Z,97.50
2019-02-07T23:13:59.995Z,96.90
2019-02-07T23:16:27.208Z,96.10
2019-02-07T23:18:54.979Z,95.30
2019-02-07T23:21:21.986Z,95.90
2019-02-07T23:23:48.655Z,95.30
2019-02-07T23:26:15.267Z,97.40
2019-02-07T23:28:42.550Z,97.80
2019-02-07T23:31:09.164Z,98.00
2019-02-07T23:33:36.033Z,99.80
2019-02-07T23:36:03.347Z,99.90
2019-02-07T23:38:30.224Z,99.70
2019-02-07T23:40:56.932Z,97.60
2019-02-07T23:43:23.577Z,96.20
2019-02-07T23:45:50.398Z,97.10
2019-02-07T23:48:17.153Z,96.70
2019-02-07T23:50:44.079Z,96.80
2019-02-07T23:53:14.797Z,97.90
2019-02-07T23:55:40.648Z,97.20
2019-02-07T23:58:07.986Z,97.60
